Time;durP1;ratioP1;P1;durP2;ratioP2;P2;SDS_P1;SDS_P2;PMS_P1;PMS_P2;Temp;Humidity;BMP_temperature;BMP_pressure;BME280_temperature;BME280_humidity;BME280_pressure;Samples;Min_cycle;Max_cycle;Signal;HPM_P1;HPM_P2
2023/04/25 00:00:37;;;;;;;9.43;0.50;;;5.80;99.90;;;;;;5038501;28;20029;-78
2023/04/25 00:03:06;;;;;;;13.35;1.17;;;5.80;99.90;;;;;;5041760;28;20021;-77
2023/04/25 00:05:32;;;;;;;10.80;1.08;;;6.00;99.90;;;;;;5056867;28;20074;-77
2023/04/25 00:07:58;;;;;;;12.18;2.13;;;6.10;99.90;;;;;;5057539;28;20477;-78
2023/04/25 00:10:24;;;;;;;8.10;1.35;;;6.30;99.90;;;;;;5058086;28;20028;-78
2023/04/25 00:12:49;;;;;;;9.27;1.15;;;6.30;99.90;;;;;;5057630;28;20047;-78
2023/04/25 00:15:21;;;;;;;6.60;0.40;;;6.30;99.90;;;;;;5056418;28;20543;-78
2023/04/25 00:17:52;;;;;;;12.63;1.40;;;6.30;99.90;;;;;;5047582;28;20039;-78
2023/04/25 00:20:18;;;;;;;5.55;1.40;;;6.30;99.90;;;;;;5036624;28;20018;-77
2023/04/25 00:22:47;;;;;;;7.93;0.60;;;6.20;99.90;;;;;;5037717;28;20116;-78
2023/04/25 00:25:13;;;;;;;9.93;0.80;;;6.10;99.90;;;;;;5036504;28;20041;-77
2023/04/25 00:27:41;;;;;;;4.53;0.32;;;6.10;99.90;;;;;;5036223;28;20120;-78
2023/04/25 00:30:08;;;;;;;7.82;0.70;;;;;;;;;;5038601;28;20028;-78
2023/04/25 00:32:36;;;;;;;6.32;1.17;;;5.90;99.90;;;;;;5042682;28;20484;-77
2023/04/25 00:35:04;;;;;;;6.40;0.80;;;5.80;99.90;;;;;;5057890;28;20027;-78
2023/04/25 00:37:30;;;;;;;7.20;0.95;;;5.70;99.90;;;;;;5058036;28;20491;-78
2023/04/25 00:39:58;;;;;;;10.20;0.50;;;5.70;99.90;;;;;;5057011;28;20074;-77
2023/04/25 00:42:25;;;;;;;10.68;1.23;;;5.60;99.90;;;;;;5056701;28;20088;-78
2023/04/25 00:44:52;;;;;;;7.82;0.38;;;5.60;99.90;;;;;;5056374;28;20021;-77
2023/04/25 00:47:18;;;;;;;6.78;0.85;;;5.50;99.90;;;;;;5046258;28;20078;-78
2023/04/25 00:49:44;;;;;;;10.70;1.20;;;5.40;99.90;;;;;;5036631;28;20479;-78
2023/04/25 00:52:10;;;;;;;10.40;1.58;;;5.30;99.90;;;;;;5037088;28;20454;-78
2023/04/25 00:54:37;;;;;;;6.63;0.43;;;;;;;;;;5036078;28;20022;-78
2023/04/25 00:57:02;;;;;;;13.13;0.73;;;5.20;99.90;;;;;;5037337;28;20029;-78
2023/04/25 00:59:30;;;;;;;9.25;1.13;;;5.10;99.90;;;;;;5037598;28;20032;-79
2023/04/25 01:01:56;;;;;;;10.45;0.82;;;5.00;99.90;;;;;;5045375;28;20033;-78
2023/04/25 01:04:26;;;;;;;9.48;0.95;;;4.90;99.90;;;;;;5055400;28;20067;-78
2023/04/25 01:06:52;;;;;;;7.35;0.40;;;4.90;99.90;;;;;;5056844;28;20021;-77
2023/04/25 01:09:19;;;;;;;6.50;0.65;;;4.80;99.90;;;;;;5056160;28;20032;-78
2023/04/25 01:11:44;;;;;;;12.55;0.90;;;4.70;99.90;;;;;;5056046;28;20099;-78
2023/04/25 01:14:10;;;;;;;15.07;1.73;;;4.70;99.90;;;;;;5056677;28;20103;-78
2023/04/25 01:16:36;;;;;;;8.00;0.90;;;4.60;99.90;;;;;;5041359;28;20025;-78
2023/04/25 01:19:09;;;;;;;7.03;1.30;;;4.50;99.90;;;;;;5035917;28;20044;-78
2023/04/25 01:21:38;;;;;;;11.80;0.50;;;4.50;99.90;;;;;;5037095;28;20448;-78
2023/04/25 01:24:04;;;;;;;5.43;0.40;;;4.50;99.90;;;;;;5037163;28;20036;-79
2023/04/25 01:26:34;;;;;;;5.05;0.45;;;4.40;99.90;;;;;;5035301;28;20068;-78
2023/04/25 01:29:00;;;;;;;6.47;0.57;;;4.40;99.90;;;;;;5036918;28;20021;-78
2023/04/25 01:31:29;;;;;;;4.65;0.40;;;4.30;99.90;;;;;;5046183;28;20344;-75
2023/04/25 01:33:55;;;;;;;8.57;0.98;;;4.30;99.90;;;;;;5053342;28;20033;-75
2023/04/25 01:36:21;;;;;;;5.35;0.70;;;4.30;99.90;;;;;;5055219;28;20123;-75
2023/04/25 01:38:47;;;;;;;10.88;1.00;;;4.20;99.90;;;;;;5054867;28;20046;-75
2023/04/25 01:41:14;;;;;;;9.30;0.82;;;4.20;99.90;;;;;;5054849;28;20028;-75
2023/04/25 01:43:40;;;;;;;7.95;0.60;;;4.10;99.90;;;;;;5052951;28;20056;-75
2023/04/25 01:46:09;;;;;;;7.05;0.95;;;4.10;99.90;;;;;;5034971;28;20468;-75
2023/04/25 01:48:34;;;;;;;;;;;4.10;99.90;;;;;;5035399;28;20056;-76
2023/04/25 01:51:00;;;;;;;4.38;0.30;;;4.10;99.90;;;;;;5034310;28;20356;-76
2023/04/25 01:53:29;;;;;;;9.88;1.08;;;4.10;99.90;;;;;;5033338;28;20070;-76
2023/04/25 01:55:55;;;;;;;9.70;0.98;;;;;;;;;;5034625;28;20040;-76
2023/04/25 01:58:23;;;;;;;12.40;1.40;;;4.10;99.90;;;;;;5034446;28;20095;-75
2023/04/25 02:00:49;;;;;;;12.20;0.88;;;;;;;;;;5035398;28;20029;-77
2023/04/25 02:03:18;;;;;;;8.07;0.85;;;4.10;99.90;;;;;;5039382;28;20036;-77
2023/04/25 02:05:43;;;;;;;5.65;0.98;;;4.10;99.90;;;;;;5054693;28;20079;-78
2023/04/25 02:08:14;;;;;;;9.93;0.95;;;;;;;;;;5055739;28;20460;-78
2023/04/25 02:10:43;;;;;;;11.95;1.00;;;4.10;99.90;;;;;;5053848;28;20373;-78
2023/04/25 02:13:09;;;;;;;16.38;1.20;;;4.10;99.90;;;;;;5053606;28;20082;-79
2023/04/25 02:15:35;;;;;;;8.40;1.13;;;;;;;;;;5052391;28;20108;-78
2023/04/25 02:18:01;;;;;;;5.40;0.75;;;4.10;99.90;;;;;;5050248;28;20511;-78
2023/04/25 02:20:32;;;;;;;3.22;0.55;;;4.10;99.90;;;;;;5053656;28;20139;-78
2023/04/25 02:22:58;;;;;;;9.77;1.67;;;4.10;99.90;;;;;;5053580;28;20024;-75
2023/04/25 02:25:24;;;;;;;10.13;1.13;;;4.10;99.90;;;;;;5053516;28;20053;-75
2023/04/25 02:27:51;;;;;;;9.30;0.80;;;;;;;;;;5052141;28;20020;-78
2023/04/25 02:30:16;;;;;;;9.40;1.25;;;4.10;99.90;;;;;;5053440;28;20028;-78
2023/04/25 02:32:43;;;;;;;6.25;0.77;;;4.10;99.90;;;;;;5036430;28;20026;-78
2023/04/25 02:35:10;;;;;;;7.88;0.50;;;;;;;;;;5033400;28;20429;-78
2023/04/25 02:37:37;;;;;;;9.85;1.27;;;4.10;99.90;;;;;;5033533;28;20036;-78
2023/04/25 02:40:06;;;;;;;11.18;1.08;;;4.20;99.90;;;;;;5033491;28;20034;-78
2023/04/25 02:42:32;;;;;;;8.73;0.47;;;4.20;99.90;;;;;;5032150;28;20025;-78
2023/04/25 02:44:58;;;;;;;5.22;0.55;;;;;;;;;;5033227;28;20018;-78
2023/04/25 02:47:24;;;;;;;8.82;0.95;;;4.30;99.90;;;;;;5051996;28;20028;-78
2023/04/25 02:49:49;;;;;;;12.00;0.90;;;4.30;99.90;;;;;;5053406;28;20017;-78
2023/04/25 02:52:15;;;;;;;8.45;0.85;;;4.30;99.90;;;;;;5051887;28;20067;-78
2023/04/25 02:54:44;;;;;;;7.25;0.40;;;4.30;99.90;;;;;;5051980;28;20033;-78
2023/04/25 02:57:09;;;;;;;12.27;0.98;;;4.40;99.90;;;;;;5051609;28;20021;-77
2023/04/25 02:59:35;;;;;;;11.15;1.20;;;4.30;99.90;;;;;;5051941;28;20502;-78
2023/04/25 03:02:01;;;;;;;9.73;0.38;;;4.40;99.90;;;;;;5034846;28;20508;-78
2023/04/25 03:04:26;;;;;;;7.00;0.30;;;4.40;99.90;;;;;;5036560;28;20033;-78
2023/04/25 03:06:55;;;;;;;5.28;1.10;;;4.40;99.90;;;;;;5037356;28;20025;-78
2023/04/25 03:09:21;;;;;;;10.55;0.82;;;4.50;99.90;;;;;;5037218;28;20033;-77
2023/04/25 03:11:46;;;;;;;13.55;0.90;;;4.50;99.90;;;;;;5037065;28;20121;-77
2023/04/25 03:14:16;;;;;;;8.90;1.05;;;4.50;99.90;;;;;;5039801;28;20028;-77
2023/04/25 03:16:42;;;;;;;8.32;0.80;;;4.60;99.90;;;;;;5055740;28;20021;-77
2023/04/25 03:19:11;;;;;;;6.05;0.40;;;4.60;99.90;;;;;;5055786;28;20025;-77
2023/04/25 03:21:36;;;;;;;;;;;4.70;99.90;;;;;;5057156;28;20029;-77
2023/04/25 03:24:04;;;;;;;8.05;0.75;;;4.70;99.90;;;;;;5055754;28;19909;-77
2023/04/25 03:26:30;;;;;;;6.68;0.85;;;5.00;99.90;;;;;;5055664;28;20028;-77
2023/04/25 03:28:55;;;;;;;4.95;0.25;;;5.10;99.90;;;;;;5047038;28;20026;-77
2023/04/25 03:31:22;;;;;;;6.53;0.40;;;5.10;99.90;;;;;;5035737;28;20025;-77
2023/04/25 03:33:47;;;;;;;5.95;0.30;;;5.10;99.90;;;;;;5035602;28;20028;-77
2023/04/25 03:36:13;;;;;;;2.88;0.15;;;5.10;99.90;;;;;;5037113;28;20029;-77
2023/04/25 03:38:38;;;;;;;7.63;0.10;;;5.00;99.90;;;;;;5037123;28;20025;-77
2023/04/25 03:41:04;;;;;;;1.92;0.17;;;5.00;99.90;;;;;;5036846;28;20033;-77
2023/04/25 03:43:30;;;;;;;5.40;0.43;;;4.90;99.90;;;;;;5042892;28;20021;-77
2023/04/25 03:45:55;;;;;;;7.10;0.52;;;4.90;99.90;;;;;;5056654;28;20024;-77
2023/04/25 03:48:22;;;;;;;0.82;0.20;;;4.90;99.90;;;;;;5056461;28;20089;-77
2023/04/25 03:50:47;;;;;;;5.65;0.32;;;4.90;99.90;;;;;;5055465;28;20100;-77
2023/04/25 03:53:13;;;;;;;1.02;0.00;;;4.90;99.90;;;;;;5055378;28;20454;-76
2023/04/25 03:55:39;;;;;;;5.03;0.00;;;;;;;;;;5055321;28;20025;-77
2023/04/25 03:58:05;;;;;;;3.67;0.00;;;4.80;99.90;;;;;;5042158;28;20051;-77
2023/04/25 04:00:31;;;;;;;8.40;0.90;;;4.80;99.90;;;;;;5035371;28;20572;-77
2023/04/25 04:02:57;;;;;;;7.43;0.28;;;4.80;99.90;;;;;;5039650;28;20491;-77
2023/04/25 04:05:23;;;;;;;8.25;0.52;;;4.80;99.90;;;;;;5055958;28;20025;-77
2023/04/25 04:07:48;;;;;;;3.10;0.77;;;4.80;99.90;;;;;;5055000;28;20024;-74
2023/04/25 04:10:14;;;;;;;2.92;0.63;;;4.80;99.90;;;;;;5056220;28;20037;-74
2023/04/25 04:12:39;;;;;;;3.38;0.35;;;4.80;99.90;;;;;;5056097;28;20021;-73
2023/04/25 04:15:06;;;;;;;3.42;0.88;;;4.80;99.90;;;;;;5054903;28;20028;-74
2023/04/25 04:17:32;;;;;;;4.40;0.17;;;4.70;99.90;;;;;;5050137;28;20025;-74
2023/04/25 04:19:58;;;;;;;4.32;0.10;;;4.60;99.90;;;;;;5055885;28;20025;-74
2023/04/25 04:22:24;;;;;;;1.38;0.13;;;4.60;99.90;;;;;;5055789;28;20025;-74
2023/04/25 04:24:50;;;;;;;5.03;0.43;;;4.60;99.90;;;;;;5054676;28;20025;-74
2023/04/25 04:27:19;;;;;;;3.58;0.00;;;4.60;99.90;;;;;;5055850;28;20021;-74
2023/04/25 04:29:45;;;;;;;5.13;0.22;;;4.60;99.90;;;;;;5056422;28;20037;-74
2023/04/25 04:32:13;;;;;;;2.42;0.20;;;5.00;99.90;;;;;;5054098;28;20024;-74
2023/04/25 04:34:39;;;;;;;3.53;0.30;;;4.60;99.90;;;;;;5034509;28;20404;-74
2023/04/25 04:37:05;;;;;;;2.88;0.10;;;4.60;99.90;;;;;;5035826;28;20021;-74
2023/04/25 04:39:31;;;;;;;4.38;0.65;;;4.70;99.90;;;;;;5035753;28;20017;-74
2023/04/25 04:41:56;;;;;;;2.92;0.20;;;4.70;99.90;;;;;;5034656;28;20072;-74
2023/04/25 04:44:22;;;;;;;6.78;0.17;;;4.70;99.90;;;;;;5035807;28;20026;-74
2023/04/25 04:46:48;;;;;;;2.00;0.40;;;4.80;99.90;;;;;;5041927;28;20492;-75
2023/04/25 04:49:14;;;;;;;6.40;0.45;;;4.80;99.90;;;;;;5055671;28;20369;-74
2023/04/25 04:51:44;;;;;;;6.95;0.60;;;4.80;99.90;;;;;;5056019;28;20082;-74
2023/04/25 04:54:10;;;;;;;8.45;0.20;;;4.90;99.90;;;;;;5055430;28;20021;-74
2023/04/25 04:56:35;;;;;;;5.57;0.55;;;4.90;99.90;;;;;;5054026;28;20024;-74
2023/04/25 04:59:02;;;;;;;12.80;0.45;;;5.00;99.90;;;;;;5055195;28;20025;-74
2023/04/25 05:01:29;;;;;;;5.82;0.10;;;5.00;99.90;;;;;;5050432;28;20358;-74
2023/04/25 05:03:59;;;;;;;4.47;0.00;;;5.00;99.90;;;;;;5055011;28;20103;-74
2023/04/25 05:06:26;;;;;;;5.95;0.40;;;5.20;99.90;;;;;;5053874;28;20396;-74
2023/04/25 05:08:52;;;;;;;9.68;0.63;;;5.20;99.90;;;;;;5053577;28;20492;-75
2023/04/25 05:11:19;;;;;;;5.10;0.15;;;5.20;99.90;;;;;;5055319;28;20022;-74
2023/04/25 05:13:45;;;;;;;6.72;0.90;;;5.20;99.90;;;;;;5041839;28;20030;-74
2023/04/25 05:16:11;;;;;;;6.72;0.77;;;5.30;99.90;;;;;;5034954;28;20030;-74
2023/04/25 05:18:37;;;;;;;4.75;0.47;;;5.40;99.90;;;;;;5035370;28;20044;-74
2023/04/25 05:21:05;;;;;;;6.53;0.10;;;5.50;99.90;;;;;;5035177;28;20025;-78
2023/04/25 05:23:32;;;;;;;2.42;0.13;;;5.60;99.90;;;;;;5033589;28;20021;-78
2023/04/25 05:25:59;;;;;;;4.45;0.10;;;5.60;99.90;;;;;;5033504;28;20028;-78
2023/04/25 05:28:25;;;;;;;5.15;0.00;;;;;;;;;;5051534;28;20496;-78
2023/04/25 05:30:51;;;;;;;4.22;0.35;;;;;;;;;;5054503;28;20021;-78
2023/04/25 05:33:17;;;;;;;1.55;0.20;;;5.70;99.90;;;;;;5055883;28;20080;-77
2023/04/25 05:35:43;;;;;;;2.63;0.00;;;5.70;99.90;;;;;;5054929;28;20032;-77
2023/04/25 05:38:08;;;;;;;5.25;0.20;;;5.80;99.90;;;;;;5055763;28;20045;-78
2023/04/25 05:40:34;;;;;;;4.50;0.10;;;5.80;99.90;;;;;;5054973;28;20028;-78
2023/04/25 05:42:59;;;;;;;4.78;0.90;;;5.90;99.90;;;;;;5039016;28;20029;-77
2023/04/25 05:45:25;;;;;;;4.38;0.20;;;5.90;99.90;;;;;;5035258;28;20087;-77
2023/04/25 05:47:51;;;;;;;2.10;0.22;;;;;;;;;;5034907;28;20025;-77
2023/04/25 05:50:17;;;;;;;1.00;0.20;;;6.00;99.90;;;;;;5035844;28;20096;-78
2023/04/25 05:52:42;;;;;;;4.78;0.15;;;6.10;99.90;;;;;;5041487;28;20455;-77
2023/04/25 05:55:08;;;;;;;3.83;0.00;;;6.20;99.90;;;;;;5054546;28;20029;-78
2023/04/25 05:57:34;;;;;;;3.80;0.05;;;6.30;99.90;;;;;;5056206;28;20396;-80
2023/04/25 05:59:59;;;;;;;2.70;0.00;;;6.30;99.90;;;;;;5054967;28;20017;-79
2023/04/25 06:02:26;;;;;;;2.67;0.13;;;6.30;99.90;;;;;;5054439;28;20029;-79
2023/04/25 06:04:52;;;;;;;5.40;0.50;;;6.40;99.90;;;;;;5035062;28;20025;-79
2023/04/25 06:07:18;;;;;;;3.30;0.10;;;6.60;99.90;;;;;;5033790;28;20079;-79
2023/04/25 06:09:44;;;;;;;3.75;0.38;;;6.70;99.90;;;;;;5033786;28;20072;-78
2023/04/25 06:12:10;;;;;;;3.47;0.00;;;6.80;99.90;;;;;;5035279;28;20026;-79
2023/04/25 06:14:35;;;;;;;8.25;0.45;;;7.00;99.90;;;;;;5033698;28;20021;-79
2023/04/25 06:17:06;;;;;;;1.80;0.03;;;6.90;99.90;;;;;;5032933;28;20473;-79
2023/04/25 06:19:36;;;;;;;3.80;0.10;;;7.10;99.90;;;;;;5033508;28;20021;-79
2023/04/25 06:22:05;;;;;;;3.97;0.32;;;7.10;99.90;;;;;;5033427;28;20041;-78
2023/04/25 06:24:30;;;;;;;8.60;0.00;;;7.10;99.90;;;;;;5034936;28;20384;-79
2023/04/25 06:26:56;;;;;;;8.65;0.30;;;;;;;;;;5032350;28;20116;-79
2023/04/25 06:29:22;;;;;;;6.53;0.10;;;7.40;99.90;;;;;;5033375;28;20450;-79
2023/04/25 06:31:48;;;;;;;6.43;0.10;;;7.50;99.90;;;;;;5033511;28;20053;-78
2023/04/25 06:34:13;;;;;;;4.55;0.35;;;7.60;99.90;;;;;;5051337;28;20029;-77
2023/04/25 06:36:39;;;;;;;8.38;0.57;;;7.70;99.90;;;;;;5053757;28;20025;-79
2023/04/25 06:39:04;;;;;;;5.57;0.20;;;7.80;99.90;;;;;;5053823;28;20043;-79
2023/04/25 06:41:30;;;;;;;6.47;0.47;;;7.80;99.90;;;;;;5054908;28;20025;-79
2023/04/25 06:43:56;;;;;;;4.47;0.25;;;7.90;99.90;;;;;;5053354;28;20404;-79
2023/04/25 06:46:21;;;;;;;7.90;0.35;;;8.00;99.90;;;;;;5052730;28;20109;-79
2023/04/25 06:48:50;;;;;;;5.68;0.00;;;8.00;99.90;;;;;;5035542;28;20026;-78
2023/04/25 06:51:15;;;;;;;8.27;0.10;;;8.10;99.90;;;;;;5033153;28;20029;-79
2023/04/25 06:53:41;;;;;;;9.30;0.10;;;;;;;;;;5033223;28;20548;-79
2023/04/25 06:56:07;;;;;;;4.75;0.05;;;8.30;99.90;;;;;;5033560;28;20053;-79
2023/04/25 06:58:33;;;;;;;6.28;0.10;;;8.40;99.90;;;;;;5035535;28;20025;-79
2023/04/25 07:00:58;;;;;;;9.77;0.63;;;8.70;99.90;;;;;;5033493;28;20061;-78
2023/04/25 07:03:24;;;;;;;11.77;0.38;;;8.90;99.90;;;;;;5039532;28;20372;-78
2023/04/25 07:05:50;;;;;;;5.03;0.68;;;8.90;99.90;;;;;;5053635;28;20021;-78
2023/04/25 07:08:16;;;;;;;6.55;0.40;;;9.20;99.90;;;;;;5053360;28;20056;-78
2023/04/25 07:10:42;;;;;;;8.52;0.40;;;9.40;99.90;;;;;;5053399;28;20074;-79
2023/04/25 07:13:08;;;;;;;5.10;0.10;;;9.40;99.90;;;;;;5054451;28;20029;-79
2023/04/25 07:15:33;;;;;;;9.27;1.50;;;9.50;99.90;;;;;;5054491;28;20021;-79
2023/04/25 07:17:59;;;;;;;4.43;0.30;;;9.50;99.90;;;;;;5048072;28;20041;-79
2023/04/25 07:20:25;;;;;;;6.07;0.10;;;9.40;99.90;;;;;;5033375;28;20508;-79
2023/04/25 07:22:50;;;;;;;3.30;0.15;;;9.40;99.90;;;;;;5033212;28;20020;-79
2023/04/25 07:25:17;;;;;;;3.05;0.20;;;9.40;99.90;;;;;;5034580;28;20424;-78
2023/04/25 07:27:42;;;;;;;3.47;0.20;;;9.30;99.90;;;;;;5034230;28;20026;-78
2023/04/25 07:30:08;;;;;;;2.45;0.10;;;9.30;99.90;;;;;;5034652;28;20040;-77
2023/04/25 07:32:34;;;;;;;3.28;0.30;;;;;;;;;;5034311;28;20030;-79
2023/04/25 07:35:01;;;;;;;2.63;0.85;;;8.70;99.90;;;;;;5034192;28;20028;-79
2023/04/25 07:37:27;;;;;;;2.47;0.30;;;8.50;99.90;;;;;;5032425;28;20052;-79
2023/04/25 07:39:52;;;;;;;8.57;0.85;;;8.60;99.90;;;;;;5034191;28;20479;-78
2023/04/25 07:42:18;;;;;;;3.40;0.10;;;8.50;99.90;;;;;;5032546;28;20128;-79
2023/04/25 07:44:43;;;;;;;6.80;0.10;;;8.50;99.90;;;;;;5034028;28;20135;-79
2023/04/25 07:47:10;;;;;;;6.78;0.65;;;8.70;99.90;;;;;;5033087;28;20026;-79
2023/04/25 07:49:36;;;;;;;2.33;0.00;;;8.70;99.90;;;;;;5035850;28;20035;-78
2023/04/25 07:52:03;;;;;;;2.83;0.00;;;9.00;99.90;;;;;;5036714;28;20026;-79
2023/04/25 07:54:29;;;;;;;8.85;0.00;;;9.10;99.90;;;;;;5036428;28;20071;-78
2023/04/25 07:56:55;;;;;;;3.15;0.03;;;;;;;;;;5036353;28;20553;-79
2023/04/25 07:59:21;;;;;;;16.88;1.23;;;9.10;99.90;;;;;;5036595;28;20026;-79
2023/04/25 08:01:47;;;;;;;5.57;0.52;;;9.10;99.90;;;;;;5042030;28;20112;-80
2023/04/25 08:04:13;;;;;;;5.93;0.13;;;9.00;99.90;;;;;;5049281;28;20097;-78
2023/04/25 08:06:38;;;;;;;7.93;0.68;;;9.00;99.90;;;;;;5057522;28;20021;-78
2023/04/25 08:09:04;;;;;;;5.88;0.50;;;8.90;99.90;;;;;;5055746;28;20546;-78
2023/04/25 08:11:30;;;;;;;5.18;0.10;;;9.10;99.90;;;;;;5055780;28;20021;-79
2023/04/25 08:13:55;;;;;;;1.83;0.00;;;9.10;99.90;;;;;;5057171;28;20032;-78
2023/04/25 08:16:22;;;;;;;4.18;0.20;;;9.30;99.90;;;;;;5055520;28;20395;-76
2023/04/25 08:18:48;;;;;;;4.97;0.20;;;9.60;99.90;;;;;;5038048;28;20042;-76
2023/04/25 08:21:15;;;;;;;7.97;0.17;;;9.70;99.90;;;;;;5035095;28;20021;-76
2023/04/25 08:23:40;;;;;;;3.67;0.00;;;10.10;99.90;;;;;;5036237;28;20017;-76
2023/04/25 08:26:06;;;;;;;2.67;0.00;;;10.10;99.90;;;;;;5036687;28;20435;-76
2023/04/25 08:28:32;;;;;;;5.30;0.10;;;10.00;99.90;;;;;;5036203;28;20017;-74
2023/04/25 08:30:58;;;;;;;5.43;0.28;;;10.00;99.90;;;;;;5036818;28;20025;-75
2023/04/25 08:33:23;;;;;;;7.03;0.05;;;9.80;99.90;;;;;;5055014;28;20025;-76
2023/04/25 08:35:49;;;;;;;5.22;0.10;;;9.30;99.90;;;;;;5055495;28;20099;-76
2023/04/25 08:38:15;;;;;;;6.05;0.00;;;9.00;99.90;;;;;;5056166;28;20036;-75
2023/04/25 08:40:42;;;;;;;4.45;0.45;;;8.70;99.90;;;;;;5056113;28;20111;-75
2023/04/25 08:43:11;;;;;;;5.97;0.00;;;8.60;99.90;;;;;;5055983;28;20029;-75
2023/04/25 08:45:41;;;;;;;3.55;0.15;;;8.50;99.90;;;;;;5047061;28;20108;-76
2023/04/25 08:48:11;;;;;;;2.75;0.00;;;8.40;99.90;;;;;;5036084;28;20026;-75
2023/04/25 08:50:53;;;;;;;4.78;0.43;;;8.50;99.90;;;;;;5034665;28;20021;-76
2023/04/25 08:53:25;;;;;;;5.80;0.47;;;8.50;99.90;;;;;;5034645;28;20017;-76
2023/04/25 08:55:54;;;;;;;7.70;0.85;;;8.90;99.90;;;;;;5034403;28;20037;-77
2023/04/25 08:58:20;;;;;;;0.95;0.00;;;8.90;99.90;;;;;;5035978;28;20032;-76
2023/04/25 09:00:47;;;;;;;3.50;0.57;;;9.00;99.90;;;;;;5049313;28;20033;-77
2023/04/25 09:03:14;;;;;;;3.58;0.13;;;9.20;99.90;;;;;;5055775;28;20016;-77
2023/04/25 09:05:40;;;;;;;1.52;0.00;;;10.50;99.90;;;;;;5055451;28;20104;-76
2023/04/25 09:08:06;;;;;;;4.30;1.17;;;9.90;99.90;;;;;;5055244;28;20052;-76
2023/04/25 09:10:33;;;;;;;5.38;0.20;;;10.00;99.90;;;;;;5054279;28;20126;-76
2023/04/25 09:13:08;;;;;;;1.45;0.10;;;10.30;99.90;;;;;;5054644;28;20025;-77
2023/04/25 09:15:51;;;;;;;1.55;0.00;;;10.50;99.90;;;;;;5034070;28;20029;-76
2023/04/25 09:18:29;;;;;;;5.22;0.28;;;10.80;99.90;;;;;;5033523;28;20108;-75
2023/04/25 09:21:09;;;;;;;1.98;0.00;;;11.00;99.90;;;;;;5035215;28;20096;-76
2023/04/25 09:23:46;;;;;;;2.80;0.22;;;11.50;99.90;;;;;;5033680;28;20075;-76
2023/04/25 09:26:20;;;;;;;3.78;0.47;;;11.60;99.90;;;;;;5035354;28;20132;-76
2023/04/25 09:28:47;;;;;;;8.13;0.43;;;11.50;99.80;;;;;;5050328;28;20017;-76
2023/04/25 09:31:24;;;;;;;2.92;0.20;;;11.40;99.90;;;;;;5054894;28;20395;-75
2023/04/25 09:33:49;;;;;;;1.85;0.00;;;11.40;99.90;;;;;;5054545;28;20020;-75
2023/04/25 09:36:15;;;;;;;4.57;0.40;;;11.10;99.90;;;;;;5054594;28;20112;-76
2023/04/25 09:38:45;;;;;;;3.38;0.00;;;11.00;99.90;;;;;;5054528;28;20032;-75
2023/04/25 09:41:12;;;;;;;4.28;0.00;;;11.00;99.90;;;;;;5051751;28;20052;-75
2023/04/25 09:43:38;;;;;;;8.27;0.52;;;10.90;99.90;;;;;;5034877;28;20542;-75
2023/04/25 09:46:09;;;;;;;3.33;0.00;;;13.20;99.90;;;;;;5033682;28;20388;-75
2023/04/25 09:48:35;;;;;;;3.05;0.00;;;10.90;99.90;;;;;;5034612;28;20105;-75
2023/04/25 09:51:15;;;;;;;0.20;0.00;;;10.60;99.90;;;;;;5033541;28;20455;-75
2023/04/25 09:53:43;;;;;;;5.13;0.00;;;10.60;99.90;;;;;;5033228;28;20061;-75
2023/04/25 09:56:11;;;;;;;3.53;0.30;;;10.50;99.90;;;;;;5039776;28;20071;-75
2023/04/25 09:58:38;;;;;;;1.60;0.27;;;10.50;99.90;;;;;;5043387;28;20030;-75
2023/04/25 10:01:09;;;;;;;4.95;0.15;;;10.70;99.90;;;;;;5034674;28;20106;-76
2023/04/25 10:03:39;;;;;;;0.75;0.00;;;10.80;99.90;;;;;;5042350;28;20017;-76
2023/04/25 10:06:14;;;;;;;5.25;0.00;;;10.90;99.90;;;;;;5052712;28;20028;-76
2023/04/25 10:08:40;;;;;;;6.80;0.75;;;10.90;99.90;;;;;;5053878;28;20029;-76
2023/04/25 10:11:08;;;;;;;2.58;0.00;;;11.00;99.90;;;;;;5054277;28;20524;-77
2023/04/25 10:13:35;;;;;;;3.58;0.00;;;11.10;99.90;;;;;;5051804;28;20059;-76
2023/04/25 10:16:04;;;;;;;9.63;1.27;;;11.20;99.90;;;;;;5053923;28;20082;-77
2023/04/25 10:18:32;;;;;;;4.82;0.00;;;12.60;99.90;;;;;;5038108;28;20028;-76
2023/04/25 10:21:03;;;;;;;1.65;0.00;;;11.30;99.90;;;;;;5032319;28;20033;-77
2023/04/25 10:23:30;;;;;;;2.80;0.00;;;11.20;99.90;;;;;;5033361;28;20033;-77
2023/04/25 10:25:57;;;;;;;0.70;0.00;;;11.20;99.90;;;;;;5034267;28;20052;-77
2023/04/25 10:28:23;;;;;;;1.75;0.00;;;11.30;99.90;;;;;;5033239;28;20022;-76
2023/04/25 10:31:02;;;;;;;5.18;0.32;;;11.40;99.90;;;;;;5034351;28;20040;-76
2023/04/25 10:33:39;;;;;;;8.73;1.25;;;11.90;99.90;;;;;;5053081;28;20377;-76
2023/04/25 10:36:15;;;;;;;1.75;0.00;;;12.00;97.40;;;;;;5051895;28;20021;-75
2023/04/25 10:38:45;;;;;;;3.80;0.10;;;12.00;96.90;;;;;;5051854;28;20511;-75
2023/04/25 10:41:12;;;;;;;4.35;0.28;;;12.30;96.60;;;;;;5051960;28;20028;-76
2023/04/25 10:43:46;;;;;;;3.80;0.20;;;13.10;96.30;;;;;;5051869;28;20476;-75
2023/04/25 10:46:25;;;;;;;1.20;0.00;;;12.00;94.80;;;;;;5039385;28;20021;-76
2023/04/25 10:48:56;;;;;;;2.65;0.00;;;11.80;94.30;;;;;;5033454;28;20079;-76
2023/04/25 10:51:25;;;;;;;1.65;0.00;;;11.80;95.00;;;;;;5031887;28;20017;-76
2023/04/25 10:54:20;;;;;;;0.60;0.20;;;11.90;96.30;;;;;;5033296;28;20026;-76
2023/04/25 10:56:45;;;;;;;2.75;0.08;;;12.40;92.90;;;;;;5031871;28;20101;-76
2023/04/25 10:59:13;;;;;;;2.17;0.00;;;12.50;93.30;;;;;;5037707;28;20056;-76
2023/04/25 11:01:40;;;;;;;2.90;0.00;;;12.90;92.60;;;;;;5053046;28;20028;-76
2023/04/25 11:04:18;;;;;;;4.43;0.35;;;12.60;95.10;;;;;;5053225;28;20039;-75
2023/04/25 11:07:00;;;;;;;1.58;0.00;;;11.80;97.90;;;;;;5053832;28;20017;-76
2023/04/25 11:09:26;;;;;;;3.50;0.00;;;11.80;98.50;;;;;;5051699;28;20039;-76
2023/04/25 11:12:00;;;;;;;1.75;0.00;;;11.30;99.40;;;;;;5051781;28;20021;-76
2023/04/25 11:14:26;;;;;;;3.20;0.52;;;10.70;99.90;;;;;;5052320;28;20500;-76
2023/04/25 11:16:57;;;;;;;0.95;0.10;;;10.30;99.90;;;;;;5053246;28;20502;-76
2023/04/25 11:19:23;;;;;;;13.77;0.30;;;10.30;99.90;;;;;;5053505;28;20035;-76
2023/04/25 11:21:50;;;;;;;1.83;0.00;;;10.20;99.90;;;;;;5053153;28;20032;-76
2023/04/25 11:24:19;;;;;;;0.10;0.00;;;10.10;99.90;;;;;;5055103;28;20036;-76
2023/04/25 11:26:49;;;;;;;3.97;0.10;;;10.30;99.90;;;;;;5056903;28;20025;-76
2023/04/25 11:29:15;;;;;;;0.80;0.00;;;10.30;99.90;;;;;;5057894;28;20104;-76
2023/04/25 11:31:45;;;;;;;2.47;0.13;;;10.40;99.90;;;;;;5055981;28;20044;-76
2023/04/25 11:34:11;;;;;;;5.13;0.00;;;10.90;99.90;;;;;;5056831;28;20036;-76
2023/04/25 11:36:38;;;;;;;1.23;0.30;;;;;;;;;;5057111;28;20020;-76
2023/04/25 11:39:05;;;;;;;3.33;0.20;;;11.90;99.90;;;;;;5056631;28;20041;-78
2023/04/25 11:41:31;;;;;;;0.88;0.00;;;12.60;99.90;;;;;;5056301;28;20051;-79
2023/04/25 11:43:57;;;;;;;1.15;0.00;;;12.70;96.00;;;;;;5058832;28;20116;-77
2023/04/25 11:46:22;;;;;;;1.55;0.00;;;12.80;97.00;;;;;;5058783;28;20021;-78
2023/04/25 11:48:50;;;;;;;0.47;0.00;;;13.10;97.50;;;;;;5062460;28;20029;-78
2023/04/25 11:51:15;;;;;;;3.67;0.10;;;13.40;98.90;;;;;;5061422;28;20047;-78
2023/04/25 11:53:43;;;;;;;0.60;0.00;;;13.50;98.20;;;;;;5062367;28;20034;-79
2023/04/25 11:56:11;;;;;;;1.02;0.00;;;13.50;98.40;;;;;;5047868;28;20034;-79
2023/04/25 11:58:56;;;;;;;0.60;0.00;;;;;;;;;;5036707;28;20025;-78
2023/04/25 12:01:34;;;;;;;3.78;0.00;;;12.80;99.10;;;;;;5037336;28;20022;-78
2023/04/25 12:04:16;;;;;;;2.88;0.00;;;12.90;98.60;;;;;;5038055;28;20088;-78
2023/04/25 12:06:44;;;;;;;3.25;0.43;;;12.60;98.70;;;;;;5038507;28;20056;-79
2023/04/25 12:09:12;;;;;;;1.47;0.00;;;12.20;96.50;;;;;;5040614;28;20025;-75
2023/04/25 12:11:46;;;;;;;0.68;0.00;;;11.70;97.60;;;;;;5036872;28;20272;-76
2023/04/25 12:14:21;;;;;;;3.35;0.10;;;11.60;97.20;;;;;;5037077;28;20113;-75
2023/04/25 12:16:48;;;;;;;3.63;0.00;;;11.10;96.80;;;;;;5036365;28;20036;-75
2023/04/25 12:19:15;;;;;;;2.92;0.10;;;11.10;96.60;;;;;;5052296;28;20021;-75
2023/04/25 12:21:41;;;;;;;1.58;0.00;;;11.30;97.40;;;;;;5034728;28;20022;-76
2023/04/25 12:24:15;;;;;;;0.20;0.00;;;10.70;96.60;;;;;;5034745;28;20484;-76
2023/04/25 12:27:02;;;;;;;2.75;0.00;;;10.60;96.90;;;;;;5035057;28;20022;-76
2023/04/25 12:29:30;;;;;;;1.98;0.20;;;10.80;98.00;;;;;;5035028;28;20021;-76
2023/04/25 12:31:56;;;;;;;2.97;0.47;;;10.90;98.30;;;;;;5035173;28;20412;-76
2023/04/25 12:34:22;;;;;;;1.73;0.25;;;11.00;97.60;;;;;;5034715;28;20025;-76
2023/04/25 12:36:51;;;;;;;0.10;0.00;;;11.60;95.70;;;;;;5033461;28;20490;-76
2023/04/25 12:39:27;;;;;;;4.47;0.57;;;11.70;96.90;;;;;;5034518;28;20021;-76
2023/04/25 12:41:56;;;;;;;2.90;0.05;;;11.90;95.20;;;;;;5035735;28;20034;-76
2023/04/25 12:44:22;;;;;;;2.08;0.00;;;12.00;94.80;;;;;;5035581;28;20022;-76
2023/04/25 12:46:48;;;;;;;1.15;0.00;;;13.00;95.30;;;;;;5050543;28;20028;-76
2023/04/25 12:49:13;;;;;;;1.30;0.30;;;13.10;95.90;;;;;;5055513;28;20051;-76
2023/04/25 12:51:39;;;;;;;4.47;0.00;;;13.40;92.60;;;;;;5054229;28;20021;-75
2023/04/25 12:54:06;;;;;;;2.75;0.00;;;13.90;92.20;;;;;;5055964;28;20100;-77
2023/04/25 12:56:32;;;;;;;1.42;0.00;;;13.80;90.70;;;;;;5055986;28;20028;-75
2023/04/25 12:58:58;;;;;;;0.30;0.00;;;13.60;92.60;;;;;;5053091;28;20392;-77
2023/04/25 13:01:24;;;;;;;2.08;0.00;;;13.40;92.20;;;;;;5034433;28;20057;-76